Aeroporto :
LOGIN :

Iscrizione | Disclaimer

   EN    FR    IT 

 










Sommario :    VFR   VFR Marginale   IFR   IFR Intensivo   IFR Molto Intensivo
Visibilità : 
Base nubi : 
>= 8 km
>= 3000ft
5 / 8 km
1000 / 3000 ft
1500m / 5 km
500 / 1000 ft
800 / 1500m
200 / 500 ft
< 800m
< 200 ft
Simboli :   Temporali  Nebbia  Neve Forte  Precipitazioni Forti  Vento > 20 kt
SIGMETs :   Varie  Temporali  Ghiacco  Turbolenza  Onda orograficha  Ceneri Vulcaniche






- Altitudine del aeroporto : 195 ft


LFMY - Salon de Provence

ULTIMO METAR :
  • 260630Z AUTO 05003KT 020V090 CAVOK 17/13 Q1018

METARs OBSOLETI :
  • 260600Z AUTO 00000KT CAVOK 15/12 Q1018
  • 260530Z AUTO VRB02KT CAVOK 13/12 Q1018
  • 260500Z AUTO VRB03KT CAVOK 11/11 Q1018
  • 260430Z AUTO 03002KT CAVOK 11/10 Q1018
  • 260400Z AUTO VRB01KT CAVOK 10/09 Q1017
  • 260330Z AUTO 06002KT CAVOK 10/10 Q1017
  • 260300Z AUTO 03005KT CAVOK 10/09 Q1017
  • 260230Z AUTO 00000KT CAVOK 10/10 Q1018
  • 260200Z AUTO 07003KT CAVOK 10/09 Q1018

TAF TAF LFMY
Valido dal 25 a 15 ore il 26 a 15 ore UTC


251400Z 2515/2615 21012KT CAVOK
BECMG 2519/2521 VRB02KT
BECMG 2609/2612 21012KT



MetMap, La meteo Aeronautica in un colpo d'occhio ! - Copyright ORBIFLY Dicembre 2007 - Disclaimer

ORBIFLY MET'MAP TEAM :

Programmazione e sviluppo : Alexandra Zaïnal
Concezione : Baudouin d'Aumeries
Supporto tecnico e logistico : Manuel Goepfert
Aiuto : Marc-Olivier Méhu
Aiuto per la traduzione : Arnaldo La Scala




FONTI E CREDITI :

   NOAA